• Join FlightAware (Why Join?)
  • Login
  • US Flag 
02:26AM EDT


 

Airport Tracker/Info


-or-


 

Live Flight TrackerFlight Track Log ✈ JST1 ✈ 07-May-2013 ✈ YMML / MEL - PHNL

Flight Track Log - Related Links

Times and Time Zones

All times are in EDT time to prevent confusion due to time zone crossing. See the JST1 flight status page for this flight to view local times or setup timezone preferences in your user account.

Time Position Orientation Groundspeed Altitude Reporting Facility
EDT Latitude Longitude Course Direction KTS MPH feet Rate Location/Type
02:41AM -37.6670 144.8420 253° West 12 14  Level FlightAware
02:42AM -37.6700 144.8420 180° South 18 21 60 Level FlightAware
02:42AM -37.6710 144.8420 180° South 15 17 60 Level FlightAware
02:43AM -37.6720 144.8450 113° Southeast 11 13 120 Level FlightAware
02:43AM -37.6730 144.8450 180° South 13 15 120 Level FlightAware
02:48AM -37.4260 145.1203 40° Northeast  Level FlightAware Approximate
02:48AM -37.6850 144.8430 40° Northeast 6 7  Level FlightAware
02:48AM -37.6860 144.8420 218° Southwest 5 6 240 Level FlightAware
02:50AM -37.5133 145.0266 40° Northeast  Level FlightAware Approximate
02:52AM -37.6490 144.8340 352° North 158 182 1,200  Level FlightAware
02:52AM -37.6300 144.8300 351° North 172 198 1,700 1,080 Climbing FlightAware
02:53AM -37.6040 144.8260 353° North 206 237 2,200 1,080 Climbing FlightAware
02:53AM -37.5850 144.8290 North 228 262 2,600 1,740 Climbing FlightAware
02:54AM -37.5440 144.8410 13° North 256 295 3,800 2,160 Climbing FlightAware
02:54AM -37.5080 144.8520 14° North 272 313 5,000 3,180 Climbing FlightAware
02:54AM -37.4739 144.8616 14° North 269 310 6,600 2,880 Climbing Aus ATC (RADAR)
02:55AM -37.4760 144.8610 14° North 273 314 6,200 660 Descending FlightAware
02:55AM -37.4580 144.8680 17° North 279 321 6,800 2,580 Climbing FlightAware
02:55AM -37.4440 144.8840 42° Northeast 283 326 7,500 2,700 Climbing FlightAware
02:55AM -37.4260 144.9180 56° Northeast 285 328 8,600 2,460 Climbing FlightAware
02:56AM -37.4030 144.9600 55° Northeast 290 334 9,800 2,220 Climbing FlightAware
02:56AM -37.3724 145.0131 55° Northeast 306 352 10,900 1,260 Climbing Aus ATC (RADAR)
02:57AM -37.3540 145.0460 55° Northeast 343 395 11,000 1,680 Climbing FlightAware
02:57AM -37.3167 145.1116 55° Northeast 352 405 12,600 2,100 Climbing Aus ATC (RADAR)
02:58AM -37.3120 145.1210 55° Northeast 357 411 12,600 2,160 Level FlightAware
02:58AM -37.2730 145.1890 54° Northeast 355 409 14,400 3,360 Climbing FlightAware
02:59AM -37.2405 145.2464 54° Northeast 351 404 16,600 3,300 Climbing Aus ATC (RADAR)
02:59AM -37.2310 145.2630 54° Northeast 335 386 16,900 1,800 Climbing FlightAware
03:00AM -37.2020 145.3150 54° Northeast 342 394 18,100 2,580 Climbing FlightAware
03:00AM -37.1953 145.3256 54° Northeast 340 391 18,500 3,180 Climbing Aus ATC (RADAR)
03:00AM -37.1724 145.3657 54° Northeast 341 392 19,500 1,500 Climbing Aus ATC (RADAR)
03:00AM -37.1590 145.3900 54° Northeast 346 398 19,600 1,380 Climbing FlightAware
03:01AM -37.1150 145.4670 54° Northeast 353 406 21,000 2,100 Climbing FlightAware
03:02AM -37.0878 145.5143 54° Northeast 356 410 22,100 1,620 Climbing Aus ATC (RADAR)
03:02AM -37.0770 145.5340 54° Northeast 359 413 22,100 1,200 Level FlightAware
03:02AM -37.0380 145.6020 54° Northeast 365 420 23,200 1,620 Climbing FlightAware
03:03AM -36.9930 145.6800 54° Northeast 370 426 24,400 1,200 Climbing FlightAware
03:04AM -36.9520 145.7520 55° Northeast 390 449 24,900 660 Climbing FlightAware
03:05AM -36.9030 145.8360 54° Northeast 411 473 25,400 1,020 Climbing FlightAware
03:05AM -36.8650 145.9004 54° Northeast 416 479 26,200 1,020 Climbing Aus ATC (RADAR)
03:05AM -36.8580 145.9130 54° Northeast 421 484 26,100 1,380 Descending FlightAware
03:06AM -36.7954 146.0186 54° Northeast 425 489 27,600 1,560 Climbing Aus ATC (RADAR)
03:07AM -36.7670 146.0691 55° Northeast 427 491 28,100 1,320 Climbing Aus ATC (RADAR)
03:07AM -36.7375 146.1187 53° Northeast 428 493 28,700 900 Climbing Aus ATC (RADAR)
03:08AM -36.7070 146.1740 53° Northeast 428 493 29,000 1,200 Climbing FlightAware
03:08AM -36.6384 146.2884 53° Northeast 430 495 30,400 1,260 Climbing Aus ATC (RADAR)
03:09AM -36.5971 146.3593 54° Northeast 434 499 30,800 660 Climbing Aus ATC (RADAR)
03:10AM -36.5298 146.4712 53° Northeast 442 509 31,400 600 Climbing Aus ATC (RADAR)
03:10AM -36.5116 146.5030 55° Northeast 447 514 31,500 -900 Climbing Aus ATC (RADAR)
03:10AM -36.5170 146.4980 55° Northeast 453 521 31,100 -180 Descending FlightAware
03:11AM -36.4670 146.5830 54° Northeast 462 532 31,400 840 Climbing FlightAware
03:11AM -36.4367 146.6311 54° Northeast 461 531 31,900 360 Climbing Aus ATC (RADAR)
03:12AM -36.4070 146.6830 54° Northeast 474 545 31,700 360 Descending FlightAware
03:12AM -36.3717 146.7405 54° Northeast 473 544 32,200 600 Climbing Aus ATC (RADAR)
03:12AM -36.3560 146.7700 54° Northeast 480 552 32,100 840 Descending FlightAware
03:13AM -36.3257 146.8181 54° Northeast 478 550 32,700 600 Climbing Aus ATC (RADAR)
03:13AM -36.3020 146.8620 54° Northeast 484 557 32,500 480 Descending FlightAware
03:13AM -36.2589 146.9297 54° Northeast 484 557 33,100 480 Climbing Aus ATC (RADAR)
03:14AM -36.2400 146.9660 54° Northeast 490 564 32,900 480 Descending FlightAware
03:14AM -36.2115 147.0088 54° Northeast 489 563 33,400 600 Climbing Aus ATC (RADAR)
03:14AM -36.1860 147.0550 54° Northeast 493 567 33,300 720 Descending FlightAware
03:15AM -36.1438 147.1219 54° Northeast 490 564 34,000 780 Climbing Aus ATC (RADAR)
03:15AM -36.1260 147.1550 54° Northeast 493 567 33,900 300 Descending FlightAware
03:16AM -36.0700 147.2490 54° Northeast 494 568 34,300 960 Climbing FlightAware
03:16AM -36.0349 147.3029 54° Northeast 490 564 34,900 720 Climbing Aus ATC (RADAR)
03:16AM -36.0120 147.3450 54° Northeast 495 570 34,800 720 Descending FlightAware
03:17AM -35.9599 147.4272 54° Northeast 490 564 35,600 780 Climbing Aus ATC (RADAR)
03:17AM -35.9550 147.4390 54° Northeast 490 564 35,400 840 Descending FlightAware
03:18AM -35.9125 147.5057 54° Northeast 488 562 36,100 600 Climbing Aus ATC (RADAR)
03:18AM -35.9020 147.5270 54° Northeast 491 565 35,800 240 Descending FlightAware
03:18AM -35.8446 147.6178 54° Northeast 490 564 36,300 660 Climbing Aus ATC (RADAR)
03:19AM -35.7964 147.6971 53° Northeast 492 566 36,600 360 Climbing Aus ATC (RADAR)
03:20AM -35.7590 147.7610 53° Northeast 490 564 36,700 660 Climbing FlightAware
03:20AM -35.7036 147.8545 53° Northeast 484 557 37,400 240 Climbing Aus ATC (RADAR)
03:21AM -35.6720 147.9220 53° Northeast 490 564 37,000 -120 Descending FlightAware
03:21AM -35.6388 147.9853 53° Northeast 484 557 37,300 300 Climbing Aus ATC (RADAR)
03:22AM -35.6031 148.0561 58° Northeast 484 557 37,300  Level Aus ATC (RADAR)
03:22AM -35.5730 148.1147 58° Northeast 484 557 37,300 -720 Level Aus ATC (RADAR)
03:22AM -35.5760 148.1120 58° Northeast 488 562 37,000  Descending FlightAware
03:23AM -35.5315 148.1971 58° Northeast 483 556 37,300  Climbing Aus ATC (RADAR)
03:23AM -35.4920 148.2760 58° Northeast 488 562 37,000 60 Descending FlightAware
03:24AM -35.4415 148.3727 58° Northeast 483 556 37,400  Climbing Aus ATC (RADAR)
03:24AM -35.4010 148.4530 58° Northeast 489 563 37,000  Descending FlightAware
03:25AM -35.3514 148.5486 58° Northeast 484 557 37,400  Climbing Aus ATC (RADAR)
03:26AM -35.3170 148.6170 58° Northeast 490 564 37,000  Descending FlightAware
03:27AM -35.2423 148.7597 58° Northeast 486 559 37,400  Climbing Aus ATC (RADAR)
03:27AM -35.2320 148.7800 58° Northeast 487 560 37,000  Descending FlightAware
03:28AM -35.1692 148.8998 58° Northeast 485 558 37,400  Climbing Aus ATC (RADAR)
03:28AM -35.1420 148.9540 58° Northeast 487 560 37,000  Descending FlightAware
03:28AM -35.1084 149.0165 58° Northeast 483 556 37,400  Climbing Aus ATC (RADAR)
03:29AM -35.0740 149.0840 57° Northeast 487 560 37,000  Descending FlightAware
03:29AM -35.0656 149.0985 57° Northeast 485 558 37,400  Climbing Aus ATC (RADAR)
03:30AM -35.0120 149.2010 57° Northeast 490 564 37,000  Descending FlightAware
03:30AM -34.9800 149.2615 57° Northeast 484 557 37,400  Climbing Aus ATC (RADAR)
03:30AM -34.9640 149.2940 57° Northeast 490 564 37,000  Descending FlightAware
03:31AM -34.9373 149.3425 57° Northeast 482 555 37,400  Climbing Aus ATC (RADAR)
03:31AM -34.9070 149.4020 57° Northeast 490 564 37,000  Descending FlightAware
03:32AM -34.8634 149.4824 57° Northeast 482 555 37,400  Climbing Aus ATC (RADAR)
03:32AM -34.8590 149.4920 57° Northeast 490 564 37,000 -480 Descending FlightAware
03:33AM -34.8090 149.5980 60° Northeast 490 564 37,000  Level FlightAware
03:33AM -34.7700 149.6990 65° Northeast 491 565 37,000  Level FlightAware
03:34AM -34.7290 149.8000 64° Northeast 492 566 37,000  Level FlightAware
03:35AM -34.6850 149.9120 64° Northeast 492 566 37,000 360 Level FlightAware
03:35AM -34.6648 149.9625 64° Northeast 484 557 37,400  Climbing Aus ATC (RADAR)
03:35AM -34.6450 150.0130 64° Northeast 493 567 37,000 -360 Descending FlightAware
03:36AM -34.6020 150.1200 64° Northeast 492 566 37,000 300 Level FlightAware
03:37AM -34.5757 150.1862 64° Northeast 482 555 37,400  Climbing Aus ATC (RADAR)
03:37AM -34.5640 150.2160 64° Northeast 492 566 37,000 -480 Descending FlightAware
03:37AM -34.5250 150.3140 64° Northeast 492 566 37,000 300 Level FlightAware
03:38AM -34.4813 150.4216 64° Northeast 483 556 37,400  Climbing Aus ATC (RADAR)
03:38AM -34.4800 150.4250 64° Northeast 489 563 37,000  Descending FlightAware
03:39AM -34.4414 150.5205 64° Northeast 482 555 37,400  Climbing Aus ATC (RADAR)
03:39AM -34.4390 150.5280 64° Northeast 491 565 37,000  Descending FlightAware
03:39AM -34.4063 150.6076 64° Northeast 484 557 37,400  Climbing Aus ATC (RADAR)
03:40AM -34.3940 150.6370 64° Northeast 492 566 37,000  Descending FlightAware
03:40AM -34.3609 150.7194 64° Northeast 484 557 37,400  Climbing Aus ATC (RADAR)
03:40AM -34.3530 150.7380 64° Northeast 492 566 37,000 -480 Descending FlightAware
03:41AM -34.3130 150.8370 64° Northeast 492 566 37,000  Level FlightAware
03:42AM -34.2670 150.9510 64° Northeast 492 566 37,000 300 Level FlightAware
03:42AM -34.2395 151.0173 64° Northeast 485 558 37,400  Climbing Aus ATC (RADAR)
03:42AM -34.2260 151.0490 64° Northeast 492 566 37,000 -480 Descending FlightAware
03:43AM -34.1910 151.1340 64° Northeast 493 567 37,000 600 Level FlightAware
03:43AM -34.1832 151.1540 64° Northeast 485 558 37,400  Climbing Aus ATC (RADAR)
03:44AM -34.1420 151.2540 64° Northeast 495 570 37,000  Descending FlightAware
03:44AM -34.1011 151.3527 64° Northeast 486 559 37,400  Climbing Aus ATC (RADAR)
03:44AM -34.0980 151.3600 64° Northeast 495 570 37,000  Descending FlightAware
03:45AM -34.0545 151.4644 64° Northeast 486 559 37,400  Climbing Aus ATC (RADAR)
03:45AM -34.0480 151.4800 64° Northeast 498 573 37,000  Descending FlightAware
03:45AM -34.0279 151.5254 64° Northeast 484 557 37,400  Climbing Aus ATC (RADAR)
03:46AM -34.0040 151.5740 64° Northeast 496 571 37,000  Descending FlightAware
03:46AM -33.9810 151.6203 64° Northeast 485 558 37,400  Climbing Aus ATC (RADAR)
03:47AM -33.9580 151.6680 64° Northeast 495 570 37,000  Descending FlightAware
03:47AM -33.9012 151.7874 64° Northeast 483 556 37,400  Climbing Aus ATC (RADAR)
03:48AM -33.8950 151.8000 64° Northeast 495 570 37,000 -480 Descending FlightAware
03:48AM -33.8480 151.8980 60° Northeast 495 570 37,000  Level FlightAware
03:49AM -33.7980 152.0020 60° Northeast 495 570 37,000  Level FlightAware
03:49AM -33.7590 152.0830 60° Northeast 495 570 37,000 540 Level FlightAware
03:50AM -33.7470 152.1083 60° Northeast 495 570 37,400  Climbing Aus ATC (RADAR)
03:50AM -33.7040 152.1970 60° Northeast 495 570 37,000  Descending FlightAware
03:51AM -33.6722 152.2636 60° Northeast 483 556 37,400  Climbing Aus ATC (RADAR)
03:51AM -33.6550 152.2980 60° Northeast 494 568 37,000  Descending FlightAware
03:51AM -33.6265 152.3575 60° Northeast 494 568 37,400  Climbing Aus ATC (RADAR)
03:52AM -33.6180 152.3750 60° Northeast 495 570 37,000 -600 Descending FlightAware
03:52AM -33.5850 152.4440 60° Northeast 496 571 37,000 300 Level FlightAware
03:53AM -33.5340 152.5484 60° Northeast 484 557 37,400  Climbing Aus ATC (RADAR)
03:53AM -33.5300 152.5570 60° Northeast 497 572 37,000  Descending FlightAware
03:53AM -33.4874 152.6434 60° Northeast 484 557 37,400  Climbing Aus ATC (RADAR)
03:53AM -33.4830 152.6530 60° Northeast 498 573 37,000  Descending FlightAware
03:54AM -33.4297 152.7618 60° Northeast 500 575 37,400  Climbing Aus ATC (RADAR)
03:54AM -33.4310 152.7580 60° Northeast 500 575 37,000 -720 Descending FlightAware
03:55AM -33.3960 152.8310 60° Northeast 501 577 37,000 720 Level FlightAware
03:55AM -33.3883 152.8458 60° Northeast 485 558 37,400  Climbing Aus ATC (RADAR)
03:56AM -33.3390 152.9460 59° Northeast 503 579 37,000  Descending FlightAware
03:56AM -33.2881 153.0496 59° Northeast 489 563 37,400  Climbing Aus ATC (RADAR)
03:57AM -33.2680 153.0910 59° Northeast 504 580 37,000 -420 Descending FlightAware
03:57AM -33.2210 153.1850 59° Northeast 505 581 37,000 300 Level FlightAware
03:58AM -33.1755 153.2767 59° Northeast 487 560 37,400  Climbing Aus ATC (RADAR)
03:58AM -33.1730 153.2830 59° Northeast 504 580 37,000  Descending FlightAware
03:58AM -33.1337 153.3606 59° Northeast 490 564 37,400  Climbing Aus ATC (RADAR)
03:59AM -33.1200 153.3880 59° Northeast 505 581 37,000  Descending FlightAware
03:59AM -33.0738 153.4800 59° Northeast 490 564 37,400  Climbing Aus ATC (RADAR)
03:59AM -33.0690 153.4900 59° Northeast 506 582 37,000  Descending FlightAware
04:00AM -33.0322 153.5640 59° Northeast 490 564 37,400  Climbing Aus ATC (RADAR)
04:00AM -33.0190 153.5910 59° Northeast 507 583 37,000  Descending FlightAware
04:00AM -32.9782 153.6714 59° Northeast 489 563 37,400  Climbing Aus ATC (RADAR)
04:01AM -32.9770 153.6740 59° Northeast 507 583 37,000  Descending FlightAware
04:01AM -32.9419 153.7434 59° Northeast 491 565 37,400  Climbing Aus ATC (RADAR)
04:01AM -32.9200 153.7860 59° Northeast 508 585 37,000 -360 Descending FlightAware
04:02AM -32.8650 153.8950 59° Northeast 510 587 37,000 360 Level FlightAware
04:02AM -32.8325 153.9594 59° Northeast 493 567 37,400  Climbing Aus ATC (RADAR)
04:03AM -32.8150 153.9930 59° Northeast 512 589 37,000 -420 Descending FlightAware
04:03AM -32.7700 154.0840 60° Northeast 512 589 37,000  Level FlightAware
04:04AM -32.7220 154.1770 58° Northeast 512 589 37,000 420 Level FlightAware
04:04AM -32.6983 154.2235 58° Northeast 494 568 37,400 420 Climbing Aus ATC (RADAR)
04:05AM -32.6553 154.3079 59° Northeast 494 568 37,400 -540 Level Aus ATC (RADAR)
04:05AM -32.6450 154.3280 59° Northeast 512 589 37,000 -540 Descending FlightAware
04:06AM -32.6000 154.4150 59° Northeast 511 588 37,000 660 Level FlightAware
04:06AM -32.5939 154.4276 59° Northeast 494 568 37,400 900 Climbing Aus ATC (RADAR)
04:06AM -32.5634 154.4873 59° Northeast 493 567 37,400 -540 Level Aus ATC (RADAR)
04:07AM -32.5460 154.5210 59° Northeast 510 587 37,000  Descending FlightAware
04:07AM -32.5140 154.5827 59° Northeast 491 565 37,400  Climbing Aus ATC (RADAR)
04:07AM -32.5000 154.6110 59° Northeast 509 586 37,000  Descending FlightAware
04:08AM -32.4402 154.7252 59° Northeast 491 565 37,400  Climbing Aus ATC (RADAR)
04:08AM -32.4390 154.7280 59° Northeast 510 587 37,000 -540 Descending FlightAware
04:09AM -32.3870 154.8290 59° Northeast 510 587 37,000  Level FlightAware
04:09AM -32.3320 154.9340 58° Northeast 511 588 37,000 240 Level FlightAware
04:10AM -32.2731 155.0463 58° Northeast 496 571 37,400  Climbing Aus ATC (RADAR)
04:10AM -32.2750 155.0440 58° Northeast 511 588 37,000  Descending FlightAware
04:11AM -32.2114 155.1653 58° Northeast 507 583 37,400  Climbing Aus ATC (RADAR)
04:11AM -32.2240 155.1400 58° Northeast 511 588 37,000  Descending FlightAware
04:11AM -32.1803 155.2244 58° Northeast 507 583 37,400  Climbing Aus ATC (RADAR)
04:12AM -32.1650 155.2540 58° Northeast 510 587 37,000  Descending FlightAware
04:12AM -32.1362 155.3073 58° Northeast 492 566 37,400  Climbing Aus ATC (RADAR)
04:12AM -32.1220 155.3350 58° Northeast 510 587 37,000  Descending FlightAware
04:13AM -32.0719 155.4250 58° Northeast 494 568 37,400  Climbing Aus ATC (RADAR)
04:13AM -32.0590 155.4560 58° Northeast 508 585 37,000 -420 Descending FlightAware
04:14AM -32.0100 155.5480 58° Northeast 507 583 37,000 540 Level FlightAware
04:14AM -31.9946 155.5773 58° Northeast 503 579 37,400  Climbing Aus ATC (RADAR)
04:14AM -31.9680 155.6280 58° Northeast 507 583 37,000  Descending FlightAware
04:15AM -31.8989 155.7527 58° Northeast 486 559 37,400  Climbing Aus ATC (RADAR)
04:15AM -31.9150 155.7270 58° Northeast 507 583 37,000 -480 Descending FlightAware
04:16AM -31.8730 155.8070 58° Northeast 507 583 37,000  Level FlightAware
04:16AM -31.8053 155.9285 58° Northeast 485 558 37,000  Level Aus ATC (RADAR)
04:17AM -31.8310 155.8870 58° Northeast 507 583 37,000 660 Level FlightAware
04:17AM -31.7634 156.0108 58° Northeast 509 586 37,400  Climbing Aus ATC (RADAR)
04:17AM -31.7880 155.9660 58° Northeast 507 583 37,000  Descending FlightAware
04:18AM -31.7021 156.1257 58° Northeast 455 524 37,400  Climbing Aus ATC (RADAR)
04:18AM -31.7360 156.0660 58° Northeast 507 583 37,000 -420 Descending FlightAware
04:19AM -31.6930 156.1450 57° Northeast 507 583 37,000  Level FlightAware
04:19AM -31.6510 156.2240 58° Northeast 507 583 37,000 300 Level FlightAware
04:20AM -31.5232 156.4566 58° Northeast 510 587 37,400  Climbing Aus ATC (RADAR)
04:20AM -31.6090 156.3040 58° Northeast 507 583 37,000 -600 Descending FlightAware
04:21AM -31.5660 156.3830 57° Northeast 507 583 37,000 300 Level FlightAware
04:21AM -31.4362 156.6172 57° Northeast 503 579 37,400  Climbing Aus ATC (RADAR)
04:21AM -31.5240 156.4630 57° Northeast 507 583 37,000  Descending FlightAware
04:22AM -31.3932 156.6966 57° Northeast 499 574 37,400  Climbing Aus ATC (RADAR)
04:22AM -31.4710 156.5620 57° Northeast 507 583 37,000 -420 Descending FlightAware
04:23AM -31.4290 156.6410 58° Northeast 507 583 37,000  Level FlightAware
04:25AM -31.2701 156.8304 46° Northeast  Level Estimated
04:26AM -31.1726 156.9460 45° Northeast  Level Estimated
04:27AM -31.0751 157.0614 45° Northeast  Level Estimated
04:27AM -31.0169 157.4075 54° Northeast 37,000  Level Aus ATC (Calculated)
04:27AM -30.9689 157.4976 54° Northeast 37,000  Level Aus ATC (Calculated)
04:29AM -30.8576 157.6273 45° Northeast  Level Estimated
04:30AM -30.7594 157.7414 45° Northeast  Level Estimated
04:31AM -30.6610 157.8554 45° Northeast  Level Estimated
04:32AM -30.5625 157.9691 45° Northeast  Level Estimated
04:32AM -30.6368 158.1161 54° Northeast 37,000  Level Aus ATC (Calculated)
04:32AM -30.6368 158.1161 54° Northeast 37,000  Level Aus ATC (Calculated)
04:34AM -30.4638 158.3142 45° Northeast  Level Estimated
04:35AM -30.3648 158.4270 45° Northeast  Level Estimated
04:36AM -30.2658 158.5397 45° Northeast  Level Estimated
04:37AM -30.1666 158.6521 44° Northeast  Level Estimated
04:37AM -30.2529 158.8191 53° Northeast 37,000  Level Aus ATC (Calculated)
04:39AM -30.0770 159.0168 44° Northeast  Level Estimated
04:40AM -29.9773 159.1284 44° Northeast  Level Estimated
04:41AM -29.8775 159.2398 44° Northeast  Level Estimated
04:42AM -29.7776 159.3509 44° Northeast  Level Estimated
04:42AM -29.8456 159.5517 52° Northeast 37,000  Level Aus ATC (Calculated)
04:44AM -29.6684 159.7470 44° Northeast  Level Estimated
04:45AM -29.5679 159.8572 44° Northeast  Level Estimated
04:46AM -29.4674 159.9672 44° Northeast  Level Estimated
04:47AM -29.3668 160.0771 44° Northeast  Level Estimated
04:47AM -29.4430 160.2629 51° Northeast 37,000  Level Aus ATC (Calculated)
04:49AM -29.2629 160.4577 43° Northeast  Level Estimated
04:50AM -29.1617 160.5667 43° Northeast  Level Estimated
04:50AM -29.1445 160.7825 51° Northeast 37,000  Level Aus ATC (Calculated)
04:51AM -29.0605 160.6754 43° Northeast  Level Estimated
04:52AM -29.0379 160.8963 43° Northeast  Level Estimated
04:52AM -29.0226 160.9927 51° Northeast 37,000  Level Aus ATC (Calculated)
04:52AM -28.9488 161.1195 50° Northeast 37,000  Level Aus ATC (Calculated)
04:54AM -28.8385 161.2362 43° Northeast  Level Estimated
04:55AM -28.7365 161.3437 43° Northeast  Level Estimated
04:56AM -28.6345 161.4510 43° Northeast  Level Estimated
04:57AM -28.5324 161.5582 43° Northeast  Level Estimated
04:57AM -28.6014 161.7114 50° Northeast 37,000  Level Aus ATC (Calculated)
04:58AM -28.5534 161.7925 49° Northeast 37,000  Level Aus ATC (Calculated)
05:00AM -28.3569 161.9965 42° Northeast  Level Estimated
05:01AM -28.2542 162.1026 42° Northeast  Level Estimated
05:02AM -28.1515 162.2085 42° Northeast  Level Estimated
05:02AM -28.2374 162.3228 49° Northeast 37,000  Level Aus ATC (Calculated)
05:02AM -28.1864 162.4077 48° Northeast 37,000  Level Aus ATC (Calculated)
05:03AM -28.1418 162.4819 48° Northeast 37,000  Level Aus ATC (Calculated)
05:04AM -28.0610 162.5359 42° Northeast  Level Estimated
05:05AM -27.9577 162.6695 42° Northeast  Level Estimated
05:06AM -27.8543 162.7744 42° Northeast  Level Estimated
05:07AM -27.7509 162.8792 42° Northeast  Level Estimated
05:08AM -27.6474 162.9837 42° Northeast  Level Estimated
05:09AM -27.5439 163.0880 42° Northeast  Level Estimated
05:10AM -27.4402 163.1921 42° Northeast  Level Estimated
05:11AM -27.3365 163.2960 42° Northeast  Level Estimated
05:12AM -27.2327 163.3997 42° Northeast  Level Estimated
05:13AM -27.1289 163.5033 42° Northeast  Level Estimated
05:14AM -27.0249 163.6066 42° Northeast  Level Estimated
05:15AM -26.9209 163.7098 41° Northeast  Level Estimated
05:16AM -26.8168 163.8127 41° Northeast  Level Estimated
05:17AM -26.7126 163.9155 41° Northeast  Level Estimated
05:18AM -26.6084 164.0181 41° Northeast  Level Estimated
05:19AM -26.5040 164.1205 41° Northeast  Level Estimated
05:20AM -26.3997 164.2227 41° Northeast  Level Estimated
05:21AM -26.2952 164.3247 41° Northeast  Level Estimated
05:22AM -26.1906 164.4265 41° Northeast  Level Estimated
05:23AM -26.0860 164.5282 41° Northeast  Level Estimated
05:24AM -25.9813 164.6297 41° Northeast  Level Estimated
05:25AM -25.8766 164.7310 41° Northeast  Level Estimated
05:26AM -25.7718 164.8321 41° Northeast  Level Estimated
05:27AM -25.6669 164.9330 41° Northeast  Level Estimated
05:28AM -25.5619 165.0338 41° Northeast  Level Estimated
05:29AM -25.4569 165.1344 41° Northeast  Level Estimated
05:30AM -25.3518 165.2348 41° Northeast  Level Estimated
05:31AM -25.2466 165.3350 41° Northeast  Level Estimated
05:32AM -25.1414 165.4351 41° Northeast  Level Estimated
05:33AM -25.0361 165.5350 41° Northeast  Level Estimated
05:34AM -24.9307 165.6347 41° Northeast  Level Estimated
05:35AM -24.8253 165.7343 41° Northeast  Level Estimated
05:36AM -24.7198 165.8336 41° Northeast  Level Estimated
05:37AM -24.6142 165.9328 41° Northeast  Level Estimated
05:38AM -24.5086 166.0319 40° Northeast  Level Estimated
05:39AM -24.4029 166.1308 40° Northeast  Level Estimated
05:40AM -24.2972 166.2295 40° Northeast  Level Estimated
05:41AM -24.1913 166.3280 40° Northeast  Level Estimated
05:42AM -24.0855 166.4264 40° Northeast  Level Estimated
05:43AM -23.9795 166.5246 40° Northeast  Level Estimated
05:44AM -23.8735 166.6227 40° Northeast  Level Estimated
05:45AM -23.7674 166.7206 40° Northeast  Level Estimated
05:46AM -23.6613 166.8183 40° Northeast  Level Estimated
05:46AM -24.1770 167.2570 40° Northeast 494 568 37,000  Level FlightAware
05:47AM -23.5551 166.9159 40° Northeast  Level Estimated
05:47AM -24.0990 167.3430 45° Northeast 493 567 37,000  Level FlightAware
05:48AM -24.0290 167.4200 45° Northeast 492 566 37,000  Level FlightAware
05:49AM -23.9630 167.4930 45° Northeast 493 567 37,000  Level FlightAware
05:49AM -23.8890 167.5730 45° Northeast 494 568 37,000  Level FlightAware
05:50AM -23.8250 167.6430 45° Northeast 495 570 37,000  Level FlightAware
05:51AM -23.7530 167.7220 45° Northeast 496 571 37,000  Level FlightAware
05:51AM -23.6870 167.7940 45° Northeast 495 570 37,000  Level FlightAware
05:52AM -23.6220 167.8650 45° Northeast 493 567 37,000  Level FlightAware
05:53AM -23.5510 167.9420 45° Northeast 493 567 37,000  Level FlightAware
05:53AM -23.4840 168.0140 45° Northeast 492 566 37,000  Level FlightAware
05:54AM -23.4130 168.0910 45° Northeast 492 566 37,000  Level FlightAware
05:55AM -23.3460 168.1620 44° Northeast 494 568 37,000  Level FlightAware
05:56AM -23.2830 168.2310 45° Northeast 493 567 37,000  Level FlightAware
05:56AM -23.2110 168.3080 45° Northeast 492 566 37,000  Level FlightAware
05:57AM -23.1460 168.3780 45° Northeast 492 566 37,000  Level FlightAware
05:58AM -23.0780 168.4520 45° Northeast 494 568 37,000  Level FlightAware
05:58AM -23.0050 168.5290 44° Northeast 495 570 37,000  Level FlightAware
05:59AM -22.9310 168.6090 45° Northeast 496 571 37,000  Level FlightAware
06:00AM -22.8670 168.6770 44° Northeast 496 571 37,000  Level FlightAware
06:00AM -22.8020 168.7470 45° Northeast 497 572 37,000  Level FlightAware
06:01AM -22.7280 168.8260 45° Northeast 494 568 37,000  Level FlightAware
06:02AM -22.6630 168.8940 44° Northeast 492 566 37,000  Level FlightAware
06:03AM -22.5970 168.9650 45° Northeast 492 566 37,000  Level FlightAware
06:03AM -22.5230 169.0430 44° Northeast 492 566 37,000  Level FlightAware
06:04AM -22.4720 169.0970 44° Northeast 492 566 37,000  Level FlightAware
06:05AM -22.4020 169.1700 44° Northeast 492 566 37,000  Level FlightAware
06:05AM -22.3470 169.2280 44° Northeast 492 566 37,000  Level FlightAware
06:06AM -22.2910 169.2860 44° Northeast 492 566 37,000  Level FlightAware
06:07AM -22.2350 169.3440 44° Northeast 492 566 37,000  Level FlightAware
06:07AM -22.1800 169.4020 44° Northeast 492 566 37,000  Level FlightAware
06:08AM -22.1100 169.4740 44° Northeast 492 566 37,000  Level FlightAware
06:09AM -22.0540 169.5330 44° Northeast 492 566 37,000  Level FlightAware
06:10AM -21.9990 169.5900 44° Northeast 492 566 37,000  Level FlightAware
06:10AM -21.9430 169.6480 44° Northeast 492 566 37,000  Level FlightAware
06:11AM -21.8870 169.7060 44° Northeast 492 566 37,000  Level FlightAware
06:12AM -21.8180 169.7790 44° Northeast 492 566 37,000  Level FlightAware
06:12AM -21.7620 169.8370 44° Northeast 492 566 37,000  Level FlightAware
06:13AM -21.7060 169.8950 44° Northeast 492 566 37,000  Level FlightAware
06:16AM -21.4369 170.1228 38° Northeast  Level Estimated
06:17AM -21.3278 170.2148 38° Northeast  Level Estimated
06:18AM -21.2185 170.3068 38° Northeast  Level Estimated
06:19AM -21.1093 170.3986 38° Northeast  Level Estimated
06:20AM -21.0000 170.4903 38° Northeast  Level Estimated
06:21AM -20.8906 170.5819 38° Northeast  Level Estimated
06:22AM -20.7812 170.6733 38° Northeast  Level Estimated
06:23AM -20.6717 170.7646 38° Northeast  Level Estimated
06:24AM -20.5622 170.8557 38° Northeast  Level Estimated
06:25AM -20.4526 170.9467 38° Northeast  Level Estimated
06:26AM -20.3430 171.0376 38° Northeast  Level Estimated
06:27AM -20.2334 171.1284 38° Northeast  Level Estimated
06:28AM -20.1237 171.2190 38° Northeast  Level Estimated
06:29AM -20.0139 171.3096 38° Northeast  Level Estimated
06:30AM -19.9041 171.3999 38° Northeast  Level Estimated
06:31AM -19.7943 171.4902 38° Northeast  Level Estimated
06:32AM -19.6844 171.5803 38° Northeast  Level Estimated
06:33AM -19.5745 171.6703 38° Northeast  Level Estimated
06:34AM -19.4645 171.7602 38° Northeast  Level Estimated
06:35AM -19.3545 171.8500 38° Northeast  Level Estimated
06:36AM -19.2444 171.9396 38° Northeast  Level Estimated
06:37AM -19.1343 172.0291 38° Northeast  Level Estimated
06:38AM -19.0242 172.1185 38° Northeast  Level Estimated
06:39AM -18.9140 172.2078 37° Northeast  Level Estimated
06:40AM -18.8037 172.2970 37° Northeast  Level Estimated
06:41AM -18.6935 172.3861 37° Northeast  Level Estimated
06:42AM -18.5831 172.4750 37° Northeast  Level Estimated
06:43AM -18.4728 172.5638 37° Northeast  Level Estimated
06:44AM -18.3624 172.6525 37° Northeast  Level Estimated
06:45AM -18.2519 172.7411 37° Northeast  Level Estimated
06:46AM -18.1415 172.8296 37° Northeast  Level Estimated
06:47AM -18.0309 172.9180 37° Northeast  Level Estimated
06:48AM -17.9204 173.0062 37° Northeast  Level Estimated
06:49AM -17.8098 173.0944 37° Northeast  Level Estimated
06:50AM -17.6991 173.1824 37° Northeast  Level Estimated
06:51AM -17.5885 173.2704 37° Northeast  Level Estimated
06:52AM -17.4777 173.3582 37° Northeast  Level Estimated
06:53AM -17.3670 173.4459 37° Northeast  Level Estimated
06:54AM -17.2562 173.5335 37° Northeast  Level Estimated
06:55AM -17.1453 173.6210 37° Northeast  Level Estimated
06:56AM -17.0345 173.7084 37° Northeast  Level Estimated
06:57AM -16.9236 173.7957 37° Northeast  Level Estimated
06:58AM -16.8126 173.8829 37° Northeast  Level Estimated
06:59AM -16.7016 173.9700 37° Northeast  Level Estimated
07:00AM -16.5906 174.0570 37° Northeast  Level Estimated
07:01AM -16.4795 174.1439 37° Northeast  Level Estimated
07:02AM -16.3685 174.2307 37° Northeast  Level Estimated
07:03AM -16.2573 174.3173 37° Northeast  Level Estimated
07:04AM -16.1462 174.4039 37° Northeast  Level Estimated
07:05AM -16.0350 174.4904 37° Northeast  Level Estimated
07:06AM -15.9237 174.5768 37° Northeast  Level Estimated
07:07AM -15.8125 174.6631 37° Northeast  Level Estimated
07:08AM -15.7012 174.7493 37° Northeast  Level Estimated
07:09AM -15.5898 174.8355 37° Northeast  Level Estimated
07:10AM -15.4785 174.9215 37° Northeast  Level Estimated
07:11AM -15.3671 175.0074 37° Northeast  Level Estimated
07:12AM -15.2556 175.0932 37° Northeast  Level Estimated
07:13AM -15.1442 175.1790 37° Northeast  Level Estimated
07:14AM -15.0327 175.2647 37° Northeast  Level Estimated
07:15AM -14.9211 175.3502 37° Northeast  Level Estimated
07:16AM -14.8096 175.4357 37° Northeast  Level Estimated
07:17AM -14.6980 175.5211 37° Northeast  Level Estimated
07:18AM -14.5864 175.6064 36° Northeast  Level Estimated
07:19AM -14.4747 175.6916 36° Northeast  Level Estimated
07:20AM -14.3630 175.7767 36° Northeast  Level Estimated
07:21AM -14.2513 175.8618 36° Northeast  Level Estimated
07:22AM -14.1395 175.9468 36° Northeast  Level Estimated
07:23AM -14.0278 176.0316 36° Northeast  Level Estimated
07:24AM -13.9159 176.1164 36° Northeast  Level Estimated
07:25AM -13.8041 176.2012 36° Northeast  Level Estimated
07:26AM -13.6922 176.2858 36° Northeast  Level Estimated
07:27AM -13.5803 176.3703 36° Northeast  Level Estimated
07:28AM -13.4684 176.4548 36° Northeast  Level Estimated
07:29AM -13.3565 176.5392 36° Northeast  Level Estimated
07:30AM -13.2445 176.6235 36° Northeast  Level Estimated
07:31AM -13.1325 176.7077 36° Northeast  Level Estimated
07:32AM -13.0204 176.7919 36° Northeast  Level Estimated
07:33AM -12.9084 176.8760 36° Northeast  Level Estimated
07:34AM -12.7963 176.9600 36° Northeast  Level Estimated
07:35AM -12.6842 177.0439 36° Northeast  Level Estimated
07:36AM -12.5721 177.1278 36° Northeast  Level Estimated
07:37AM -12.4599 177.2116 36° Northeast  Level Estimated
07:38AM -12.3477 177.2953 36° Northeast  Level Estimated
07:39AM -12.2355 177.3789 36° Northeast  Level Estimated
07:40AM -12.1232 177.4625 36° Northeast  Level Estimated
07:41AM -12.0110 177.5460 36° Northeast  Level Estimated
07:42AM -11.8987 177.6294 36° Northeast  Level Estimated
07:43AM -11.7864 177.7128 36° Northeast  Level Estimated
07:44AM -11.6740 177.7961 36° Northeast  Level Estimated
07:45AM -11.5616 177.8793 36° Northeast  Level Estimated
07:46AM -11.4493 177.9625 36° Northeast  Level Estimated
07:47AM -11.3368 178.0455 36° Northeast  Level Estimated
07:48AM -11.2244 178.1286 36° Northeast  Level Estimated
07:49AM -11.1119 178.2115 36° Northeast  Level Estimated
07:50AM -10.9995 178.2944 36° Northeast  Level Estimated
07:51AM -10.8870 178.3773 36° Northeast  Level Estimated
07:52AM -10.7744 178.4601 36° Northeast  Level Estimated
07:53AM -10.6619 178.5428 36° Northeast  Level Estimated
07:54AM -10.5493 178.6254 36° Northeast  Level Estimated
07:55AM -10.4367 178.7080 36° Northeast  Level Estimated
07:56AM -10.3241 178.7905 36° Northeast  Level Estimated
07:57AM -10.2115 178.8730 36° Northeast  Level Estimated
07:58AM -10.0988 178.9554 36° Northeast  Level Estimated
07:59AM -9.9939 179.0321 36° Northeast  Level Estimated
08:00AM -9.8890 179.1088 36° Northeast  Level Estimated
08:01AM -9.7840 179.1854 36° Northeast  Level Estimated
08:02AM -9.6790 179.2619 36° Northeast  Level Estimated
08:03AM -9.5740 179.3384 36° Northeast  Level Estimated
08:04AM -9.4690 179.4149 36° Northeast  Level Estimated
08:05AM -9.3639 179.4913 36° Northeast  Level Estimated
08:06AM -9.2589 179.5677 36° Northeast  Level Estimated
08:07AM -9.1538 179.6440 36° Northeast  Level Estimated
08:08AM -9.0487 179.7203 36° Northeast  Level Estimated
08:09AM -8.9436 179.7965 36° Northeast  Level Estimated
08:10AM -8.8385 179.8727 36° Northeast  Level Estimated
08:11AM -8.7334 179.9488 36° Northeast  Level Estimated
08:12AM -8.6282 -179.9751 36° Northeast  Level Estimated
08:13AM -8.5231 -179.8990 36° Northeast  Level Estimated
08:14AM -8.4179 -179.8230 36° Northeast  Level Estimated
08:15AM -8.3127 -179.7470 36° Northeast  Level Estimated
08:16AM -8.2075 -179.6711 36° Northeast  Level Estimated
08:17AM -8.1023 -179.5952 36° Northeast  Level Estimated
08:18AM -7.9970 -179.5193 36° Northeast  Level Estimated
08:19AM -7.8918 -179.4435 36° Northeast  Level Estimated
08:20AM -7.7865 -179.3678 36° Northeast  Level Estimated
08:21AM -7.6812 -179.2920 35° Northeast  Level Estimated
08:22AM -7.5760 -179.2163 35° Northeast  Level Estimated
08:23AM -7.4707 -179.1407 35° Northeast  Level Estimated
08:24AM -7.3653 -179.0650 35° Northeast  Level Estimated
08:25AM -7.2600 -178.9894 35° Northeast  Level Estimated
08:26AM -7.1547 -178.9139 35° Northeast  Level Estimated
08:27AM -7.0493 -178.8383 35° Northeast  Level Estimated
08:28AM -6.9440 -178.7629 35° Northeast  Level Estimated
08:29AM -6.8386 -178.6874 35° Northeast  Level Estimated
08:30AM -6.7332 -178.6120 35° Northeast  Level Estimated
08:31AM -6.6278 -178.5366 35° Northeast  Level Estimated
08:32AM -6.5224 -178.4612 35° Northeast  Level Estimated
08:33AM -6.4170 -178.3859 35° Northeast  Level Estimated
08:34AM -6.3115 -178.3106 35° Northeast  Level Estimated
08:35AM -6.2061 -178.2354 35° Northeast  Level Estimated
08:36AM -6.1006 -178.1602 35° Northeast  Level Estimated
08:37AM -5.9952 -178.0849 35° Northeast  Level Estimated
08:38AM -5.8897 -178.0098 35° Northeast  Level Estimated
08:39AM -5.7842 -177.9346 35° Northeast  Level Estimated
08:40AM -5.6787 -177.8595 35° Northeast  Level Estimated
08:41AM -5.5732 -177.7844 35° Northeast  Level Estimated
08:42AM -5.4677 -177.7094 35° Northeast  Level Estimated
08:43AM -5.3622 -177.6343 35° Northeast  Level Estimated
08:44AM -5.2567 -177.5593 35° Northeast  Level Estimated
08:45AM -5.1511 -177.4843 35° Northeast  Level Estimated
08:46AM -5.0456 -177.4094 35° Northeast  Level Estimated
08:47AM -4.9400 -177.3345 35° Northeast  Level Estimated
08:48AM -4.8345 -177.2595 35° Northeast  Level Estimated
08:49AM -4.7289 -177.1846 35° Northeast  Level Estimated
08:50AM -4.6233 -177.1098 35° Northeast  Level Estimated
08:51AM -4.5177 -177.0349 35° Northeast  Level Estimated
08:52AM -4.4121 -176.9601 35° Northeast  Level Estimated
08:53AM -4.3065 -176.8853 35° Northeast  Level Estimated
08:54AM -4.2009 -176.8105 35° Northeast  Level Estimated
08:55AM -4.0953 -176.7358 35° Northeast  Level Estimated
08:56AM -3.9896 -176.6611 35° Northeast  Level Estimated
08:57AM -3.8840 -176.5863 35° Northeast  Level Estimated
08:58AM -3.7784 -176.5116 35° Northeast  Level Estimated
08:59AM -3.6727 -176.4370 35° Northeast  Level Estimated
09:00AM -3.5671 -176.3623 35° Northeast  Level Estimated
09:01AM -3.4614 -176.2876 35° Northeast  Level Estimated
09:02AM -3.3557 -176.2130 35° Northeast  Level Estimated
09:03AM -3.2501 -176.1384 35° Northeast  Level Estimated
09:04AM -3.1444 -176.0638 35° Northeast  Level Estimated
09:05AM -3.0387 -175.9892 35° Northeast  Level Estimated
09:06AM -2.9330 -175.9147 35° Northeast  Level Estimated
09:07AM -2.8273 -175.8401 35° Northeast  Level Estimated
09:08AM -2.7216 -175.7655 35° Northeast  Level Estimated
09:09AM -2.6159 -175.6910 35° Northeast  Level Estimated
09:10AM -2.5102 -175.6165 35° Northeast  Level Estimated
09:11AM -2.4045 -175.5420 35° Northeast  Level Estimated
09:12AM -2.2988 -175.4675 35° Northeast  Level Estimated
09:13AM -2.1931 -175.3930 35° Northeast  Level Estimated
09:14AM -2.0874 -175.3186 35° Northeast  Level Estimated
09:15AM -1.9816 -175.2441 35° Northeast  Level Estimated
09:16AM -1.8759 -175.1696 35° Northeast  Level Estimated
09:17AM -1.7702 -175.0952 35° Northeast  Level Estimated
09:18AM -1.6644 -175.0208 35° Northeast  Level Estimated
09:19AM -1.5587 -174.9464 35° Northeast  Level Estimated
09:20AM -1.4530 -174.8719 35° Northeast  Level Estimated
09:21AM -1.3472 -174.7975 35° Northeast  Level Estimated
09:22AM -1.2415 -174.7231 35° Northeast  Level Estimated
09:23AM -1.1357 -174.6487 35° Northeast  Level Estimated
09:24AM -1.0300 -174.5743 35° Northeast  Level Estimated
09:25AM -0.9242 -174.4999 35° Northeast  Level Estimated
09:26AM -0.8185 -174.4256 35° Northeast  Level Estimated
09:27AM -0.7127 -174.3512 35° Northeast  Level Estimated
09:28AM -0.6070 -174.2768 35° Northeast  Level Estimated
09:29AM -0.5012 -174.2024 35° Northeast  Level Estimated
09:30AM -0.3954 -174.1281 35° Northeast  Level Estimated
09:31AM -0.2897 -174.0537 35° Northeast  Level Estimated
09:32AM -0.1839 -173.9793 35° Northeast  Level Estimated
09:33AM -0.0782 -173.9050 35° Northeast  Level Estimated
09:34AM 0.0276 -173.8306 35° Northeast  Level Estimated
09:35AM 0.1333 -173.7562 35° Northeast  Level Estimated
09:36AM 0.2391 -173.6818 35° Northeast  Level Estimated
09:37AM 0.3449 -173.6075 35° Northeast  Level Estimated
09:38AM 0.4506 -173.5331 35° Northeast  Level Estimated
09:39AM 0.5564 -173.4587 35° Northeast  Level Estimated
09:40AM 0.6622 -173.3844 35° Northeast  Level Estimated
09:41AM 0.7679 -173.3100 35° Northeast  Level Estimated
09:42AM 0.8737 -173.2356 35° Northeast  Level Estimated
09:43AM 0.9794 -173.1612 35° Northeast  Level Estimated
09:44AM 1.0852 -173.0868 35° Northeast  Level Estimated
09:45AM 1.1909 -173.0124 35° Northeast  Level Estimated
09:46AM 1.2967 -172.9380 35° Northeast  Level Estimated
09:47AM 1.4024 -172.8636 35° Northeast  Level Estimated
09:48AM 1.5081 -172.7892 35° Northeast  Level Estimated
09:49AM 1.6139 -172.7148 35° Northeast  Level Estimated
09:50AM 1.7196 -172.6403 35° Northeast  Level Estimated
09:51AM 1.8253 -172.5659 35° Northeast  Level Estimated
09:52AM 1.9311 -172.4915 35° Northeast  Level Estimated
09:53AM 2.0368 -172.4170 35° Northeast  Level Estimated
09:54AM 2.1425 -172.3425 35° Northeast  Level Estimated
09:55AM 2.2482 -172.2680 35° Northeast  Level Estimated
09:56AM 2.3540 -172.1935 35° Northeast  Level Estimated
09:57AM 2.4597 -172.1190 35° Northeast  Level Estimated
09:58AM 2.5654 -172.0445 35° Northeast  Level Estimated
09:59AM 2.6711 -171.9700 35° Northeast  Level Estimated
10:00AM 2.7768 -171.8955 35° Northeast  Level Estimated
10:01AM 2.8825 -171.8209 35° Northeast  Level Estimated
10:02AM 2.9882 -171.7464 35° Northeast  Level Estimated
10:03AM 3.0938 -171.6718 35° Northeast  Level Estimated
10:04AM 3.1995 -171.5972 35° Northeast  Level Estimated
10:05AM 3.3052 -171.5226 35° Northeast  Level Estimated
10:06AM 3.4109 -171.4480 35° Northeast  Level Estimated
10:07AM 3.5165 -171.3733 35° Northeast  Level Estimated
10:08AM 3.6222 -171.2987 35° Northeast  Level Estimated
10:09AM 3.7278 -171.2240 35° Northeast  Level Estimated
10:10AM 3.8335 -171.1493 35° Northeast  Level Estimated
10:11AM 3.9391 -171.0746 35° Northeast  Level Estimated
10:12AM 4.0447 -170.9999 35° Northeast  Level Estimated
10:13AM 4.1504 -170.9251 35° Northeast  Level Estimated
10:14AM 4.2560 -170.8504 35° Northeast  Level Estimated
10:15AM 4.3616 -170.7756 35° Northeast  Level Estimated
10:16AM 4.4672 -170.7007 35° Northeast  Level Estimated
10:17AM 4.5728 -170.6259 35° Northeast  Level Estimated
10:18AM 4.6784 -170.5511 35° Northeast  Level Estimated
10:19AM 4.7840 -170.4762 35° Northeast  Level Estimated
10:20AM 4.8895 -170.4013 35° Northeast  Level Estimated
10:21AM 4.9951 -170.3264 35° Northeast  Level Estimated
10:22AM 5.1006 -170.2514 35° Northeast  Level Estimated
10:23AM 5.2062 -170.1765 35° Northeast  Level Estimated
10:24AM 5.3117 -170.1015 35° Northeast  Level Estimated
10:25AM 5.4173 -170.0264 35° Northeast  Level Estimated
10:26AM 5.5228 -169.9514 35° Northeast  Level Estimated
10:27AM 5.6283 -169.8763 35° Northeast  Level Estimated
10:28AM 5.7338 -169.8012 35° Northeast  Level Estimated
10:29AM 5.8393 -169.7261 35° Northeast  Level Estimated
10:30AM 5.9448 -169.6509 35° Northeast  Level Estimated
10:31AM 6.0502 -169.5757 35° Northeast  Level Estimated
10:32AM 6.1557 -169.5005 35° Northeast  Level Estimated
10:33AM 6.2611 -169.4252 35° Northeast  Level Estimated
10:34AM 6.3666 -169.3500 35° Northeast  Level Estimated
10:35AM 6.4720 -169.2747 35° Northeast  Level Estimated
10:36AM 6.5774 -169.1993 35° Northeast  Level Estimated
10:37AM 6.6828 -169.1239 35° Northeast  Level Estimated
10:38AM 6.7882 -169.0486 35° Northeast  Level Estimated
10:39AM 6.8936 -168.9731 35° Northeast  Level Estimated
10:40AM 6.9990 -168.8976 35° Northeast  Level Estimated
10:41AM 7.1043 -168.8221 35° Northeast  Level Estimated
10:42AM 7.2097 -168.7466 35° Northeast  Level Estimated
10:43AM 7.3150 -168.6710 35° Northeast  Level Estimated
10:44AM 7.4203 -168.5954 35° Northeast  Level Estimated
10:45AM 7.5256 -168.5198 35° Northeast  Level Estimated
10:46AM 7.6309 -168.4441 35° Northeast  Level Estimated
10:47AM 7.7362 -168.3684 35° Northeast  Level Estimated
10:48AM 7.8415 -168.2926 35° Northeast  Level Estimated
10:49AM 7.9467 -168.2168 35° Northeast  Level Estimated
10:50AM 8.0520 -168.1410 36° Northeast  Level Estimated
10:51AM 8.1572 -168.0651 36° Northeast  Level Estimated
10:52AM 8.2624 -167.9892 36° Northeast  Level Estimated
10:53AM 8.3676 -167.9132 36° Northeast  Level Estimated
10:54AM 8.4728 -167.8372 36° Northeast  Level Estimated
10:55AM 8.5780 -167.7612 36° Northeast  Level Estimated
10:56AM 8.6831 -167.6851 36° Northeast  Level Estimated
10:57AM 8.7882 -167.6090 36° Northeast  Level Estimated
10:58AM 8.8934 -167.5328 36° Northeast  Level Estimated
10:59AM 8.9985 -167.4566 36° Northeast  Level Estimated
11:00AM 9.1036 -167.3804 36° Northeast  Level Estimated
11:01AM 9.2086 -167.3041 36° Northeast  Level Estimated
11:02AM 9.3137 -167.2277 36° Northeast  Level Estimated
11:03AM 9.4187 -167.1513 36° Northeast  Level Estimated
11:04AM 9.5238 -167.0749 36° Northeast  Level Estimated
11:05AM 9.6288 -166.9984 36° Northeast  Level Estimated
11:06AM 9.7338 -166.9219 36° Northeast  Level Estimated
11:07AM 9.8388 -166.8453 36° Northeast  Level Estimated
11:08AM 9.9437 -166.7687 36° Northeast  Level Estimated
11:09AM 10.0487 -166.6920 36° Northeast  Level Estimated
11:10AM 10.1536 -166.6153 36° Northeast  Level Estimated
11:11AM 10.2585 -166.5385 36° Northeast  Level Estimated
11:12AM 10.3634 -166.4617 36° Northeast  Level Estimated
11:13AM 10.4683 -166.3848 36° Northeast  Level Estimated
11:14AM 10.5731 -166.3078 36° Northeast  Level Estimated
11:15AM 10.6779 -166.2309 36° Northeast  Level Estimated
11:16AM 10.7828 -166.1538 36° Northeast  Level Estimated
11:17AM 10.8876 -166.0767 36° Northeast  Level Estimated
11:18AM 10.9923 -165.9996 36° Northeast  Level Estimated
11:19AM 11.0971 -165.9224 36° Northeast  Level Estimated
11:20AM 11.2018 -165.8451 36° Northeast  Level Estimated
11:21AM 11.3066 -165.7678 36° Northeast  Level Estimated
11:22AM 11.4113 -165.6904 36° Northeast  Level Estimated
11:23AM 11.5159 -165.6130 36° Northeast  Level Estimated
11:24AM 11.6206 -165.5355 36° Northeast  Level Estimated
11:25AM 11.7252 -165.4580 36° Northeast  Level Estimated
11:26AM 11.8299 -165.3804 36° Northeast  Level Estimated
11:27AM 11.9345 -165.3027 36° Northeast  Level Estimated
11:28AM 12.0390 -165.2250 36° Northeast  Level Estimated
11:29AM 12.1436 -165.1472 36° Northeast  Level Estimated
11:30AM 12.2481 -165.0694 36° Northeast  Level Estimated
11:31AM 12.3526 -164.9915 36° Northeast  Level Estimated
11:32AM 12.4571 -164.9135 36° Northeast  Level Estimated
11:33AM 12.5616 -164.8355 36° Northeast  Level Estimated
11:34AM 12.6660 -164.7574 36° Northeast  Level Estimated
11:35AM 12.7704 -164.6793 36° Northeast  Level Estimated
11:36AM 12.8748 -164.6010 36° Northeast  Level Estimated
11:37AM 12.9792 -164.5228 36° Northeast  Level Estimated
11:38AM 13.0835 -164.4444 36° Northeast  Level Estimated
11:39AM 13.1879 -164.3660 36° Northeast  Level Estimated
11:40AM 13.2922 -164.2875 36° Northeast  Level Estimated
11:41AM 13.3964 -164.2090 36° Northeast  Level Estimated
11:42AM 13.5007 -164.1303 36° Northeast  Level Estimated
11:43AM 13.6049 -164.0517 36° Northeast  Level Estimated
11:44AM 13.7091 -163.9729 36° Northeast  Level Estimated
11:45AM 13.8133 -163.8941 36° Northeast  Level Estimated
11:46AM 13.9174 -163.8152 36° Northeast  Level Estimated
11:47AM 14.0216 -163.7362 36° Northeast  Level Estimated
11:48AM 14.1257 -163.6572 36° Northeast  Level Estimated
11:49AM 14.2298 -163.5780 36° Northeast  Level Estimated
11:50AM 14.3338 -163.4989 36° Northeast  Level Estimated
11:51AM 14.4378 -163.4196 36° Northeast  Level Estimated
11:52AM 14.5418 -163.3403 36° Northeast  Level Estimated
11:53AM 14.6458 -163.2608 36° Northeast  Level Estimated
11:54AM 14.7497 -163.1814 36° Northeast  Level Estimated
11:55AM 14.8537 -163.1018 36° Northeast  Level Estimated
11:56AM 14.9576 -163.0222 37° Northeast  Level Estimated
11:57AM 15.0614 -162.9425 37° Northeast  Level Estimated
11:58AM 15.1652 -162.8627 37° Northeast  Level Estimated
11:59AM 15.2690 -162.7828 37° Northeast  Level Estimated
12:00PM 15.3728 -162.7029 37° Northeast  Level Estimated
12:01PM 15.4766 -162.6228 37° Northeast  Level Estimated
12:02PM 15.5803 -162.5427 37° Northeast  Level Estimated
12:03PM 15.6840 -162.4625 37° Northeast  Level Estimated
12:04PM 15.7877 -162.3822 37° Northeast  Level Estimated
12:05PM 15.8913 -162.3019 37° Northeast  Level Estimated
12:06PM 15.9949 -162.2215 37° Northeast  Level Estimated
12:07PM 16.0984 -162.1409 37° Northeast  Level Estimated
12:08PM 16.2020 -162.0603 37° Northeast  Level Estimated
12:09PM 16.3055 -161.9796 37° Northeast  Level Estimated
12:10PM 16.4090 -161.8989 37° Northeast  Level Estimated
12:11PM 16.5124 -161.8180 37° Northeast  Level Estimated
12:12PM 16.6159 -161.7371 37° Northeast  Level Estimated
12:13PM 16.7192 -161.6560 37° Northeast  Level Estimated
12:14PM 16.8226 -161.5749 37° Northeast  Level Estimated
12:15PM 16.9259 -161.4937 37° Northeast  Level Estimated
12:16PM 17.0292 -161.4124 37° Northeast  Level Estimated
12:17PM 17.1325 -161.3310 37° Northeast  Level Estimated
12:18PM 17.2357 -161.2495 37° Northeast  Level Estimated
12:19PM 17.3389 -161.1680 37° Northeast  Level Estimated
12:20PM 17.4421 -161.0863 37° Northeast  Level Estimated
12:21PM 17.5452 -161.0046 37° Northeast  Level Estimated
12:22PM 17.6483 -160.9227 37° Northeast  Level Estimated
12:23PM 17.7514 -160.8408 37° Northeast  Level Estimated
12:24PM 17.8544 -160.7587 37° Northeast  Level Estimated
12:25PM 17.9574 -160.6766 37° Northeast  Level Estimated
12:25PM 18.6220 -159.8750 37° Northeast 450 518 39,000  Level FlightAware
12:25PM 18.6780 -159.8370 33° Northeast 450 518 39,000  Level FlightAware
12:26PM 18.0603 -160.5944 37° Northeast  Level Estimated
12:26PM 18.7520 -159.7860 33° Northeast 450 518 39,000  Level FlightAware
12:27PM 18.8350 -159.7270 34° Northeast 449 517 39,000  Level FlightAware
12:28PM 18.9380 -159.6550 33° Northeast 449 517 39,000  Level FlightAware
12:28PM 19.0000 -159.6120 33° Northeast 450 518 39,000  Level FlightAware
12:29PM 19.0770 -159.5570 34° Northeast 451 519 39,000  Level FlightAware
12:30PM 19.1560 -159.5030 33° Northeast 452 520 39,000 -180 Level FlightAware
12:31PM 19.2590 -159.4310 33° Northeast 454 522 38,700 -240 Descending FlightAware
12:31PM 19.3130 -159.3920 34° Northeast 454 522 38,700 -1,620 Level FlightAware
12:32PM 19.3910 -159.3380 33° Northeast 456 525 36,700 -1,860 Descending FlightAware
12:33PM 19.4650 -159.2860 34° Northeast 454 522 36,100 -2,100 Descending FlightAware
12:34PM 19.5990 -159.1910 34° Northeast 447 514 32,500 -2,520 Descending FlightAware
12:35PM 19.6550 -159.1520 33° Northeast 456 525 31,500 -1,200 Descending FlightAware
12:35PM 19.7230 -159.1040 34° Northeast 453 521 31,000 -1,560 Descending FlightAware
12:36PM 19.8250 -159.0320 34° Northeast 434 499 28,900 -2,460 Descending FlightAware
12:37PM 19.8900 -158.9860 34° Northeast 434 499 26,900 -1,920 Descending FlightAware
12:38PM 19.9880 -158.9160 34° Northeast 409 471 25,700 -2,040 Descending FlightAware
12:39PM 20.0670 -158.8610 33° Northeast 404 465 23,400 -2,400 Descending FlightAware
12:39PM 20.1100 -158.8300 34° Northeast 399 459 22,500 -1,920 Descending FlightAware
12:40PM 20.1950 -158.7700 34° Northeast 391 450 20,700 -1,980 Descending FlightAware
12:41PM 20.2880 -158.7030 34° Northeast 390 449 18,800 -1,740 Descending FlightAware
12:42PM 20.3530 -158.6570 34° Northeast 372 428 17,600 -1,680 Descending FlightAware
12:43PM 20.4360 -158.5980 34° Northeast 360 414 16,000 -1,080 Descending FlightAware
12:44PM 20.4780 -158.5670 35° Northeast 360 414 16,000 -1,920 Level FlightAware
12:44PM 20.5500 -158.5160 34° Northeast 352 405 13,300 -2,400 Descending FlightAware
12:45PM 20.6060 -158.4760 34° Northeast 346 398 12,200 -1,680 Descending FlightAware
12:46PM 20.6690 -158.4310 34° Northeast 339 390 10,800 -1,500 Descending FlightAware
12:47PM 20.7190 -158.3950 34° Northeast 328 377 10,100 -960 Descending FlightAware
12:47PM 20.7750 -158.3550 34° Northeast 299 344 9,500 -1,080 Descending FlightAware
12:48PM 20.8160 -158.3300 30° Northeast 298 343 8,700 -1,200 Descending FlightAware
12:48PM 20.8430 -158.3150 27° Northeast 293 337 8,300 -900 Descending FlightAware
12:49PM 20.9000 -158.2820 28° Northeast 293 337 7,700 -1,080 Descending FlightAware
12:50PM 20.9420 -158.2590 27° Northeast 293 337 6,900 -1,380 Descending FlightAware
12:52PM 21.1288 -158.0917 40° Northeast  Level FlightAware Approximate
12:53PM 21.2279 -158.0027 40° Northeast  Level FlightAware Approximate
12:54PM 21.3083 -157.9304 34° Northeast  Level FlightAware Approximate
12:55PM 21.3187 -157.9224 34° Northeast  Level Estimated
12:56PM 21.3187 -157.9224 34° Northeast  Level Estimated
12:57PM 21.3187 -157.9224 34° Northeast  Level Estimated
12:58PM 21.3187 -157.9224 34° Northeast  Level Estimated
12:59PM 21.3187 -157.9224 34° Northeast  Level Estimated
01:00PM 21.3187 -157.9224 34° Northeast  Level Estimated
01:01PM 21.3187 -157.9224 34° Northeast  Level Estimated
01:02PM 21.3187 -157.9224 34° Northeast  Level Estimated
01:03PM 21.3187 -157.9224 34° Northeast  Level Estimated
01:04PM 21.3187 -157.9224 34° Northeast  Level Estimated
01:05PM 21.3187 -157.9224 34° Northeast  Level Estimated
01:06PM 21.3187 -157.9224 34° Northeast  Level Estimated
01:07PM 21.3187 -157.9224 34° Northeast  Level Estimated
01:08PM 21.3187 -157.9224 34° Northeast  Level Estimated
01:09PM 21.3187 -157.9224 34° Northeast  Level Estimated